createdAt,value
2022-10-23T00:01:01.756Z,80.70
2022-10-23T00:03:29.648Z,80.80
2022-10-23T00:05:58.851Z,80.50
2022-10-23T00:08:26.818Z,80.75
2022-10-23T00:10:54.715Z,80.39
2022-10-23T00:13:22.710Z,80.47
2022-10-23T00:15:53.595Z,80.79
2022-10-23T00:18:21.477Z,80.45
2022-10-23T00:20:49.353Z,80.66
2022-10-23T00:23:18.889Z,80.67
2022-10-23T00:25:46.788Z,80.50
2022-10-23T00:28:14.702Z,80.42
2022-10-23T00:30:42.659Z,80.02
2022-10-23T00:33:11.110Z,79.95
2022-10-23T00:35:40.858Z,79.82
2022-10-23T00:38:08.842Z,79.85
2022-10-23T00:40:38.628Z,79.99
2022-10-23T00:43:08.218Z,80.04
2022-10-23T00:45:36.139Z,79.75
2022-10-23T00:48:04.892Z,79.89
2022-10-23T00:50:34.401Z,79.71
2022-10-23T00:53:05.166Z,79.96
2022-10-23T00:55:34.333Z,79.85
2022-10-23T00:58:04.146Z,79.90
2022-10-23T01:00:42.733Z,80.35
2022-10-23T01:03:10.711Z,79.98
2022-10-23T01:05:45.807Z,79.77
2022-10-23T01:08:21.202Z,79.82
2022-10-23T01:10:55.280Z,79.82
2022-10-23T01:13:36.310Z,79.92
2022-10-23T01:16:12.905Z,79.90
2022-10-23T01:18:45.608Z,80.14
2022-10-23T01:21:19.479Z,80.07
2022-10-23T01:24:08.869Z,80.60
2022-10-23T01:26:48.642Z,80.31
2022-10-23T01:29:23.002Z,80.21
2022-10-23T01:31:57.437Z,80.58
2022-10-23T01:34:31.768Z,80.44
2022-10-23T01:37:03.970Z,81.03
2022-10-23T01:39:36.944Z,80.39
2022-10-23T01:42:09.649Z,80.88
2022-10-23T01:44:42.940Z,80.82
2022-10-23T01:47:14.313Z,80.76
2022-10-23T01:50:02.080Z,80.75
2022-10-23T01:52:30.419Z,81.01
2022-10-23T01:55:01.886Z,81.05
2022-10-23T01:57:35.231Z,81.21
2022-10-23T02:00:08.520Z,81.16
2022-10-23T02:02:53.448Z,81.51
2022-10-23T02:05:27.480Z,81.38
2022-10-23T02:07:57.215Z,81.80
2022-10-23T02:10:30.941Z,82.03
2022-10-23T02:13:04.376Z,81.77
2022-10-23T02:15:37.357Z,82.00
2022-10-23T02:18:10.642Z,82.14
2022-10-23T02:20:41.683Z,81.90
2022-10-23T02:23:18.709Z,82.01
2022-10-23T02:25:54.079Z,81.81
2022-10-23T02:28:27.540Z,82.17
2022-10-23T02:31:03.590Z,81.79
2022-10-23T02:33:33.813Z,81.74
2022-10-23T02:36:01.724Z,82.07
2022-10-23T02:38:36.715Z,81.79
2022-10-23T02:41:18.919Z,81.49
2022-10-23T02:43:58.245Z,81.54
2022-10-23T02:46:35.912Z,81.99
2022-10-23T02:49:11.624Z,81.61
2022-10-23T02:51:54.010Z,81.98
2022-10-23T02:54:41.128Z,81.98
2022-10-23T02:57:17.186Z,81.63
2022-10-23T02:59:53.490Z,82.15
2022-10-23T03:02:26.719Z,81.80
2022-10-23T03:04:56.910Z,81.73
2022-10-23T03:07:27.441Z,81.72
2022-10-23T03:10:03.379Z,81.46
2022-10-23T03:12:32.975Z,82.53
2022-10-23T03:15:00.943Z,82.72
2022-10-23T03:17:30.218Z,82.52
2022-10-23T03:20:00.906Z,82.59
2022-10-23T03:22:28.846Z,83.06
2022-10-23T03:24:57.316Z,82.57
2022-10-23T03:27:25.331Z,82.53
2022-10-23T03:29:55.949Z,82.75
2022-10-23T03:32:24.073Z,83.38
2022-10-23T03:34:53.350Z,82.60
2022-10-23T03:37:23.178Z,83.10
2022-10-23T03:39:51.896Z,83.21
2022-10-23T03:42:19.920Z,83.07
2022-10-23T03:44:47.906Z,83.07
2022-10-23T03:47:15.834Z,83.52
2022-10-23T03:49:43.744Z,83.06
2022-10-23T03:52:13.165Z,82.97
2022-10-23T03:54:41.116Z,83.47
2022-10-23T03:57:09.031Z,83.79
2022-10-23T03:59:37.044Z,83.64
2022-10-23T04:02:07.006Z,84.24
2022-10-23T04:04:35.190Z,84.24
2022-10-23T04:07:03.172Z,84.42
2022-10-23T04:09:32.476Z,84.06
2022-10-23T04:12:00.406Z,83.93
2022-10-23T04:14:29.810Z,83.86
2022-10-23T04:16:57.794Z,84.07
2022-10-23T04:19:25.762Z,84.08
2022-10-23T04:21:57.165Z,83.99
2022-10-23T04:24:25.996Z,84.24
2022-10-23T04:26:55.361Z,84.28
2022-10-23T04:29:24.597Z,84.59
2022-10-23T04:31:52.777Z,84.22
2022-10-23T04:34:20.874Z,84.49
2022-10-23T04:36:49.020Z,84.81
2022-10-23T04:39:18.225Z,84.43
2022-10-23T04:41:46.243Z,84.84
2022-10-23T04:44:15.714Z,84.96
2022-10-23T04:46:44.006Z,84.77
2022-10-23T04:49:11.964Z,84.79
2022-10-23T04:51:58.491Z,84.90
2022-10-23T04:54:50.910Z,84.68
2022-10-23T04:57:30.871Z,85.01
2022-10-23T05:00:09.760Z,84.57
2022-10-23T05:02:45.154Z,85.09
2022-10-23T05:05:17.626Z,84.71
2022-10-23T05:08:06.015Z,84.95
2022-10-23T05:10:57.100Z,85.63
2022-10-23T05:13:24.989Z,85.86
2022-10-23T05:15:54.988Z,85.57
2022-10-23T05:18:27.357Z,85.32
2022-10-23T05:21:00.323Z,84.92
2022-10-23T05:23:31.138Z,84.78
2022-10-23T05:26:03.197Z,85.49
2022-10-23T05:28:32.369Z,85.42
2022-10-23T05:31:04.466Z,85.18
2022-10-23T05:33:33.843Z,85.71
2022-10-23T05:36:02.609Z,85.05
2022-10-23T05:38:34.574Z,85.44
2022-10-23T05:41:07.521Z,85.09
2022-10-23T05:43:35.544Z,85.10
2022-10-23T05:46:19.942Z,85.85
2022-10-23T05:49:26.706Z,85.47
2022-10-23T05:52:29.805Z,85.52
2022-10-23T05:55:17.033Z,85.65
2022-10-23T05:58:03.820Z,85.34
2022-10-23T06:00:50.229Z,85.38
2022-10-23T06:03:45.362Z,85.20
2022-10-23T06:06:14.030Z,85.37
2022-10-23T06:08:47.827Z,85.47
2022-10-23T06:11:16.462Z,85.06
2022-10-23T06:13:52.186Z,85.13
2022-10-23T06:16:25.439Z,85.07
2022-10-23T06:18:55.194Z,85.38
2022-10-23T06:21:23.133Z,85.70
2022-10-23T06:23:51.919Z,85.21
2022-10-23T06:26:38.027Z,84.83
2022-10-23T06:29:09.874Z,84.98
2022-10-23T06:31:38.918Z,84.84
2022-10-23T06:34:11.777Z,84.92
2022-10-23T06:36:40.044Z,85.01
2022-10-23T06:39:29.763Z,84.77
2022-10-23T06:42:20.257Z,85.46
2022-10-23T06:44:57.209Z,85.37
2022-10-23T06:47:40.217Z,84.99
2022-10-23T06:50:25.930Z,84.84
2022-10-23T06:52:54.618Z,84.99
2022-10-23T06:55:23.533Z,84.47
2022-10-23T06:57:52.340Z,84.75
2022-10-23T07:00:21.506Z,84.48
2022-10-23T07:02:54.179Z,84.19
2022-10-23T07:05:24.983Z,84.08
2022-10-23T07:07:53.360Z,83.66
2022-10-23T07:10:26.362Z,83.83
2022-10-23T07:13:01.080Z,83.29
2022-10-23T07:15:49.572Z,83.39
2022-10-23T07:18:23.822Z,83.77
2022-10-23T07:21:12.127Z,83.75
2022-10-23T07:23:41.208Z,83.52
2022-10-23T07:26:10.589Z,83.38
2022-10-23T07:28:38.902Z,82.85
2022-10-23T07:31:07.108Z,83.36
2022-10-23T07:34:04.138Z,83.60
2022-10-23T07:36:33.452Z,83.17
2022-10-23T07:39:01.535Z,83.01
2022-10-23T07:41:29.553Z,83.05
2022-10-23T07:43:57.545Z,82.67
2022-10-23T07:46:25.479Z,82.68
2022-10-23T07:48:53.810Z,82.46
2022-10-23T07:51:22.780Z,81.83
2022-10-23T07:53:58.045Z,81.90
2022-10-23T07:56:49.018Z,81.90
2022-10-23T07:59:38.094Z,81.93
2022-10-23T08:02:13.046Z,81.53
2022-10-23T08:04:42.525Z,81.24
2022-10-23T08:07:36.544Z,80.99
2022-10-23T08:10:07.164Z,80.44
2022-10-23T08:12:38.246Z,80.24
2022-10-23T08:15:07.202Z,80.39
2022-10-23T08:17:47.299Z,79.79
2022-10-23T08:20:18.531Z,79.39
2022-10-23T08:22:47.217Z,78.66
2022-10-23T08:25:25.000Z,77.56
2022-10-23T08:27:53.861Z,76.48
2022-10-23T08:30:21.956Z,75.50
2022-10-23T08:32:49.924Z,75.28
2022-10-23T08:35:18.146Z,75.07
2022-10-23T08:37:46.193Z,74.79
2022-10-23T08:40:16.782Z,74.72
2022-10-23T08:43:09.250Z,74.17
2022-10-23T08:45:45.970Z,73.66
2022-10-23T08:48:38.777Z,73.36
2022-10-23T08:51:43.746Z,73.12
2022-10-23T08:54:15.858Z,73.47
2022-10-23T08:56:48.166Z,73.39
2022-10-23T08:59:26.238Z,72.51
2022-10-23T09:01:59.254Z,71.80
2022-10-23T09:04:27.502Z,71.70
2022-10-23T09:07:02.220Z,70.89
2022-10-23T09:09:49.737Z,70.57
2022-10-23T09:12:21.613Z,69.66
2022-10-23T09:15:17.301Z,69.40
2022-10-23T09:17:46.272Z,68.72
2022-10-23T09:20:20.386Z,67.75
2022-10-23T09:22:49.968Z,67.10
2022-10-23T09:25:20.831Z,66.28
2022-10-23T09:27:53.291Z,65.63
2022-10-23T09:30:33.741Z,65.40
2022-10-23T09:33:13.191Z,65.42
2022-10-23T09:35:53.594Z,64.83
2022-10-23T09:38:28.637Z,63.90
2022-10-23T09:40:56.959Z,63.77
2022-10-23T09:43:28.068Z,64.92
2022-10-23T09:46:06.158Z,64.74
2022-10-23T09:48:35.921Z,65.21
2022-10-23T09:51:05.811Z,65.62
2022-10-23T09:53:36.545Z,65.91
2022-10-23T09:56:07.840Z,65.29
2022-10-23T09:58:39.176Z,64.99
2022-10-23T10:01:23.837Z,64.56
2022-10-23T10:03:54.815Z,63.70
2022-10-23T10:06:28.262Z,64.25
2022-10-23T10:08:58.615Z,64.48
2022-10-23T10:11:32.303Z,64.07
2022-10-23T10:14:14.812Z,64.57
2022-10-23T10:16:52.368Z,64.61
2022-10-23T10:19:32.541Z,64.80
2022-10-23T10:22:08.842Z,64.92
2022-10-23T10:24:43.305Z,65.02
2022-10-23T10:27:20.836Z,65.36
2022-10-23T10:30:02.743Z,65.45
2022-10-23T10:32:40.719Z,65.40
2022-10-23T10:35:23.578Z,65.18
2022-10-23T10:38:10.180Z,63.63
2022-10-23T10:40:42.547Z,61.84
2022-10-23T10:43:21.741Z,61.85
2022-10-23T10:45:49.874Z,61.51
2022-10-23T10:48:33.565Z,60.41
2022-10-23T10:51:27.959Z,60.41
2022-10-23T10:54:20.179Z,59.47
2022-10-23T10:56:49.509Z,57.82
2022-10-23T10:59:24.300Z,56.71
2022-10-23T11:01:59.040Z,58.02
2022-10-23T11:04:38.001Z,57.77
2022-10-23T11:07:12.539Z,57.98
2022-10-23T11:09:41.186Z,56.18
2022-10-23T11:12:18.757Z,55.56
2022-10-23T11:14:46.932Z,56.81
2022-10-23T11:17:19.687Z,56.68
2022-10-23T11:19:57.632Z,56.12
2022-10-23T11:22:33.964Z,54.55
2022-10-23T11:25:22.486Z,52.96
2022-10-23T11:28:08.546Z,52.91
2022-10-23T11:30:49.636Z,51.59
2022-10-23T11:34:03.192Z,52.23
2022-10-23T11:36:43.917Z,52.89
2022-10-23T11:39:23.494Z,53.70
2022-10-23T11:41:54.606Z,53.12
2022-10-23T11:44:41.390Z,52.70
2022-10-23T11:47:28.311Z,52.86
2022-10-23T11:50:14.301Z,53.01
2022-10-23T11:53:13.076Z,52.27
2022-10-23T11:55:58.202Z,51.90
2022-10-23T11:58:31.545Z,52.24
2022-10-23T12:01:05.279Z,51.80
2022-10-23T12:03:43.527Z,51.77
2022-10-23T12:06:22.031Z,51.01
2022-10-23T12:08:56.009Z,50.71
2022-10-23T12:11:27.755Z,49.27
2022-10-23T12:13:56.138Z,48.02
2022-10-23T12:16:34.922Z,48.02
2022-10-23T12:19:18.848Z,49.26
2022-10-23T12:21:47.715Z,48.89
2022-10-23T12:24:39.993Z,47.18
2022-10-23T12:27:19.812Z,48.90
2022-10-23T12:30:10.655Z,50.16
2022-10-23T12:32:54.249Z,50.86
2022-10-23T12:35:56.536Z,51.30
2022-10-23T12:38:26.797Z,52.36
2022-10-23T12:41:01.571Z,51.80
2022-10-23T12:43:32.394Z,51.35
2022-10-23T12:46:04.903Z,51.76
2022-10-23T12:48:34.888Z,52.27
2022-10-23T12:51:02.899Z,53.43
2022-10-23T12:53:30.835Z,53.45
2022-10-23T12:56:04.138Z,53.93
2022-10-23T12:58:34.154Z,54.19
2022-10-23T13:01:07.005Z,55.21
2022-10-23T13:03:36.238Z,55.56
2022-10-23T13:06:04.657Z,55.74
2022-10-23T13:08:35.734Z,55.75
2022-10-23T13:11:26.795Z,55.75
2022-10-23T13:13:57.390Z,56.09
2022-10-23T13:16:26.705Z,56.78
2022-10-23T13:18:54.684Z,56.80
2022-10-23T13:21:24.872Z,56.43
2022-10-23T13:23:53.707Z,56.59
2022-10-23T13:26:30.527Z,56.83
2022-10-23T13:28:59.183Z,57.21
2022-10-23T13:31:30.772Z,57.54
2022-10-23T13:34:17.776Z,57.28
2022-10-23T13:36:55.520Z,57.88
2022-10-23T13:39:25.590Z,58.02
2022-10-23T13:41:54.961Z,57.91
2022-10-23T13:44:26.291Z,58.08
2022-10-23T13:46:54.951Z,57.67
2022-10-23T13:49:23.120Z,57.65
2022-10-23T13:51:53.360Z,57.93
2022-10-23T13:54:23.166Z,57.50
2022-10-23T13:56:51.895Z,57.77
2022-10-23T13:59:21.354Z,57.91
2022-10-23T14:01:50.695Z,57.46
2022-10-23T14:04:19.740Z,57.65
2022-10-23T14:06:48.173Z,57.62
2022-10-23T14:09:18.017Z,57.27
2022-10-23T14:11:46.086Z,57.27
2022-10-23T14:14:14.040Z,58.20
2022-10-23T14:16:43.251Z,58.16
2022-10-23T14:19:12.109Z,58.17
2022-10-23T14:21:40.005Z,58.28
2022-10-23T14:24:08.254Z,58.38
2022-10-23T14:26:36.230Z,58.32
2022-10-23T14:29:10.188Z,58.40
2022-10-23T14:31:39.396Z,58.79
2022-10-23T14:34:13.468Z,58.97
2022-10-23T14:36:49.652Z,59.33
2022-10-23T14:39:18.112Z,59.47
2022-10-23T14:41:46.278Z,59.19
2022-10-23T14:44:14.555Z,59.82
2022-10-23T14:46:42.678Z,59.82
2022-10-23T14:49:11.992Z,59.63
2022-10-23T14:51:39.934Z,60.16
2022-10-23T14:54:09.136Z,60.76
2022-10-23T14:56:39.960Z,60.77
2022-10-23T14:59:09.172Z,60.76
2022-10-23T15:01:43.692Z,60.84
2022-10-23T15:04:17.067Z,60.57
2022-10-23T15:06:46.331Z,60.88
2022-10-23T15:09:14.861Z,60.92
2022-10-23T15:11:43.490Z,61.01
2022-10-23T15:14:11.506Z,61.36
2022-10-23T15:16:42.072Z,61.15
2022-10-23T15:19:13.714Z,60.78
2022-10-23T15:21:46.898Z,61.19
2022-10-23T15:24:15.119Z,60.86
2022-10-23T15:26:43.345Z,61.07
2022-10-23T15:29:12.389Z,60.96
2022-10-23T15:31:50.181Z,61.28
2022-10-23T15:34:19.894Z,61.33
2022-10-23T15:36:50.443Z,61.78
2022-10-23T15:39:21.567Z,62.01
2022-10-23T15:41:52.312Z,61.95
2022-10-23T15:44:22.331Z,62.01
2022-10-23T15:46:50.596Z,61.89
2022-10-23T15:49:19.247Z,62.64
2022-10-23T15:51:49.306Z,63.30
2022-10-23T15:54:19.616Z,63.46
2022-10-23T15:56:49.756Z,64.01
2022-10-23T15:59:19.931Z,64.57
2022-10-23T16:01:48.494Z,65.37
2022-10-23T16:04:19.572Z,65.68
2022-10-23T16:06:49.267Z,65.56
2022-10-23T16:09:17.915Z,65.93
2022-10-23T16:11:46.170Z,66.54
2022-10-23T16:14:15.897Z,67.15
2022-10-23T16:16:44.295Z,67.14
2022-10-23T16:19:12.970Z,66.74
2022-10-23T16:21:40.979Z,66.24
2022-10-23T16:24:11.030Z,66.31
2022-10-23T16:26:39.316Z,65.80
2022-10-23T16:29:09.356Z,65.83
2022-10-23T16:31:37.488Z,66.05
2022-10-23T16:34:06.595Z,65.77
2022-10-23T16:36:35.298Z,66.20
2022-10-23T16:39:07.145Z,66.09
2022-10-23T16:41:55.259Z,66.29
2022-10-23T16:44:27.209Z,66.36
2022-10-23T16:46:59.787Z,66.62
2022-10-23T16:49:29.754Z,66.34
2022-10-23T16:51:57.825Z,66.58
2022-10-23T16:54:25.875Z,66.32
2022-10-23T16:56:55.251Z,66.33
2022-10-23T16:59:23.205Z,67.11
2022-10-23T17:01:51.282Z,67.25
2022-10-23T17:04:19.745Z,67.40
2022-10-23T17:06:47.718Z,67.53
2022-10-23T17:09:15.721Z,67.95
2022-10-23T17:11:45.468Z,68.02
2022-10-23T17:14:17.396Z,67.90
2022-10-23T17:16:47.675Z,67.90
2022-10-23T17:19:43.313Z,68.02
2022-10-23T17:22:10.324Z,67.76
2022-10-23T17:24:38.583Z,67.91
2022-10-23T17:27:06.566Z,67.88
2022-10-23T17:29:36.517Z,67.87
2022-10-23T17:32:04.883Z,67.65
2022-10-23T17:34:32.808Z,66.85
2022-10-23T17:37:00.770Z,66.53
2022-10-23T17:39:30.076Z,66.45
2022-10-23T17:41:58.669Z,65.22
2022-10-23T17:44:26.702Z,65.04
2022-10-23T17:46:56.589Z,64.35
2022-10-23T17:49:26.177Z,64.41
2022-10-23T17:51:56.310Z,64.51
2022-10-23T17:54:26.010Z,64.49
2022-10-23T17:56:53.998Z,64.35
2022-10-23T17:59:21.994Z,65.20
2022-10-23T18:01:50.302Z,65.46
2022-10-23T18:04:21.289Z,65.98
2022-10-23T18:06:52.436Z,65.43
2022-10-23T18:09:20.976Z,66.05
2022-10-23T18:11:49.295Z,67.50
2022-10-23T18:14:18.322Z,69.02
2022-10-23T18:16:46.763Z,67.42
2022-10-23T18:19:14.881Z,67.30
2022-10-23T18:21:44.178Z,67.59
2022-10-23T18:24:12.587Z,67.40
2022-10-23T18:26:42.286Z,69.54
2022-10-23T18:29:12.036Z,68.75
2022-10-23T18:31:40.277Z,70.60
2022-10-23T18:34:12.915Z,73.39
2022-10-23T18:36:41.581Z,73.03
2022-10-23T18:39:14.268Z,72.81
2022-10-23T18:41:44.847Z,73.37
2022-10-23T18:44:16.838Z,73.68
2022-10-23T18:46:45.395Z,74.82
2022-10-23T18:49:14.196Z,76.54
2022-10-23T18:51:42.233Z,77.27
2022-10-23T18:54:13.720Z,77.65
2022-10-23T18:56:42.276Z,78.40
2022-10-23T18:59:14.056Z,80.59
2022-10-23T19:01:42.237Z,80.25
2022-10-23T19:04:12.566Z,80.03
2022-10-23T19:06:40.766Z,80.19
2022-10-23T19:09:13.651Z,80.02
2022-10-23T19:11:42.185Z,80.48
2022-10-23T19:14:10.664Z,79.76
2022-10-23T19:16:40.857Z,79.62
2022-10-23T19:19:16.402Z,79.48
2022-10-23T19:21:45.450Z,79.29
2022-10-23T19:24:19.195Z,78.66
2022-10-23T19:26:47.916Z,81.32
2022-10-23T19:29:19.611Z,81.10
2022-10-23T19:31:49.861Z,82.09
2022-10-23T19:34:19.974Z,83.10
2022-10-23T19:36:48.487Z,81.72
2022-10-23T19:39:18.877Z,81.81
2022-10-23T19:41:46.826Z,82.84
2022-10-23T19:44:15.812Z,82.63
2022-10-23T19:46:44.502Z,83.24
2022-10-23T19:49:12.786Z,82.97
2022-10-23T19:51:40.929Z,84.56
2022-10-23T19:54:10.546Z,86.02
2022-10-23T19:56:40.097Z,86.76
2022-10-23T19:59:08.489Z,86.56
2022-10-23T20:01:36.482Z,86.89
2022-10-23T20:04:04.602Z,87.11
2022-10-23T20:06:35.393Z,88.42
2022-10-23T20:09:07.928Z,91.83
2022-10-23T20:11:37.249Z,88.92
2022-10-23T20:14:07.132Z,88.49
2022-10-23T20:16:37.443Z,88.39
2022-10-23T20:19:07.247Z,88.34
2022-10-23T20:21:36.956Z,88.09
2022-10-23T20:24:05.475Z,88.21
2022-10-23T20:26:33.763Z,88.91
2022-10-23T20:29:01.729Z,88.84
2022-10-23T20:31:31.131Z,88.16
2022-10-23T20:33:59.210Z,88.21
2022-10-23T20:36:28.821Z,88.08
2022-10-23T20:38:57.947Z,88.54
2022-10-23T20:41:28.446Z,87.72
2022-10-23T20:43:57.044Z,88.00
2022-10-23T20:46:25.200Z,87.84
2022-10-23T20:48:54.695Z,88.00
2022-10-23T20:51:24.308Z,87.79
2022-10-23T20:53:53.064Z,87.83
2022-10-23T20:56:24.227Z,87.85
2022-10-23T20:58:52.198Z,87.74
2022-10-23T21:01:20.248Z,87.96
2022-10-23T21:03:51.237Z,87.85
2022-10-23T21:06:21.089Z,87.95
2022-10-23T21:08:49.063Z,87.82
2022-10-23T21:11:18.505Z,87.85
2022-10-23T21:13:46.441Z,87.93
2022-10-23T21:16:15.592Z,88.35
2022-10-23T21:18:46.489Z,88.33
2022-10-23T21:21:16.998Z,88.48
2022-10-23T21:23:46.983Z,88.25
2022-10-23T21:26:16.652Z,88.17
2022-10-23T21:28:55.672Z,88.00
2022-10-23T21:31:34.426Z,88.65
2022-10-23T21:34:02.606Z,88.37
2022-10-23T21:36:34.018Z,88.58
2022-10-23T21:39:04.781Z,88.16
2022-10-23T21:41:34.829Z,88.46
2022-10-23T21:44:04.468Z,89.00
2022-10-23T21:46:34.108Z,89.40
2022-10-23T21:49:02.472Z,89.19
2022-10-23T21:51:32.284Z,89.30
2022-10-23T21:54:00.516Z,89.25
2022-10-23T21:56:32.647Z,88.95
2022-10-23T21:59:02.264Z,89.21
2022-10-23T22:01:30.948Z,89.23
2022-10-23T22:03:59.042Z,88.84
2022-10-23T22:06:29.339Z,88.44
2022-10-23T22:08:59.225Z,88.77
2022-10-23T22:11:28.052Z,88.66
2022-10-23T22:13:57.783Z,89.03
2022-10-23T22:16:25.816Z,88.37
2022-10-23T22:18:54.033Z,88.43
2022-10-23T22:21:23.925Z,88.02
2022-10-23T22:23:52.701Z,87.92
2022-10-23T22:26:24.085Z,88.05
2022-10-23T22:28:54.050Z,88.30
2022-10-23T22:31:25.633Z,87.96
2022-10-23T22:33:54.328Z,88.01
2022-10-23T22:36:22.436Z,87.90
2022-10-23T22:38:50.514Z,87.98
2022-10-23T22:41:19.010Z,88.26
2022-10-23T22:43:47.033Z,87.95
2022-10-23T22:46:16.628Z,87.79
2022-10-23T22:48:46.824Z,87.45
2022-10-23T22:51:16.629Z,87.45
2022-10-23T22:53:45.040Z,87.21
2022-10-23T22:56:15.448Z,88.01
2022-10-23T22:58:43.576Z,87.78
2022-10-23T23:01:15.553Z,87.67
2022-10-23T23:03:45.776Z,87.87
2022-10-23T23:06:13.984Z,87.66
2022-10-23T23:08:42.754Z,88.01
2022-10-23T23:11:14.106Z,88.61
2022-10-23T23:13:42.914Z,88.48
2022-10-23T23:16:18.881Z,88.30
2022-10-23T23:18:48.702Z,88.29
2022-10-23T23:21:17.234Z,88.25
2022-10-23T23:23:45.541Z,87.93
2022-10-23T23:26:14.516Z,88.57
2022-10-23T23:28:42.646Z,88.25
2022-10-23T23:31:13.471Z,88.46
2022-10-23T23:33:41.357Z,88.31
2022-10-23T23:36:13.381Z,87.89
2022-10-23T23:38:41.411Z,87.70
2022-10-23T23:41:13.322Z,88.04
2022-10-23T23:43:41.495Z,87.94
2022-10-23T23:46:09.563Z,87.59
2022-10-23T23:48:37.803Z,87.38
2022-10-23T23:51:06.492Z,87.50
2022-10-23T23:53:35.723Z,87.36
2022-10-23T23:56:03.608Z,87.21
2022-10-23T23:58:31.533Z,87.53
